Paris, Arkansas
Current Conditions -  °F | °C
As of 5:53 AM on Thursday 18 Dec 2014 (Local Time) from KRUE Reporting Station
Haze Haze  
Wind Chill: 32°   Ceiling: 1900
Heat Index: 36°   Visibility: 5mi
Dew Point: 34°   Wind: 5mph
Humidity: 93%   Direction: 90°E
Pressure: 30.2"   Gusts: NA
Location:  35.29°N, 93.73°W
Report Text: KRUE 181153Z AUTO 09004KT 5SM BR FEW011 OVC019 02/01 A3020 RMK AO2 SLP227 60005 70055 T00220011 10028 20022 55004
Loading
Personal Weather Stations






























Interactive Weather Map New forecast layout! Learn more

10-Day Weather Forecast

Advertisements
Track Severe Weather on mobile